sensor_id;sensor_type;location;lat;lon;timestamp;P1;durP1;ratioP1;P2;durP2;ratioP2
5795;SDS011;2924;51.458;7.046;2024-01-15T00:01:49;55.50;;;22.67;;
5795;SDS011;2924;51.458;7.046;2024-01-15T00:04:15;59.50;;;23.17;;
5795;SDS011;2924;51.458;7.046;2024-01-15T00:06:40;54.20;;;23.83;;
5795;SDS011;2924;51.458;7.046;2024-01-15T00:09:06;51.00;;;21.40;;
5795;SDS011;2924;51.458;7.046;2024-01-15T00:11:32;49.07;;;21.13;;
5795;SDS011;2924;51.458;7.046;2024-01-15T00:13:58;44.00;;;20.73;;
5795;SDS011;2924;51.458;7.046;2024-01-15T00:16:24;45.83;;;20.27;;
5795;SDS011;2924;51.458;7.046;2024-01-15T00:18:49;48.03;;;22.40;;
5795;SDS011;2924;51.458;7.046;2024-01-15T00:21:15;53.47;;;21.27;;
5795;SDS011;2924;51.458;7.046;2024-01-15T00:23:44;47.27;;;21.40;;
5795;SDS011;2924;51.458;7.046;2024-01-15T00:26:10;47.10;;;20.67;;
5795;SDS011;2924;51.458;7.046;2024-01-15T00:28:38;44.53;;;20.80;;
5795;SDS011;2924;51.458;7.046;2024-01-15T00:31:04;41.10;;;20.73;;
5795;SDS011;2924;51.458;7.046;2024-01-15T00:33:30;51.87;;;21.80;;
5795;SDS011;2924;51.458;7.046;2024-01-15T00:35:56;39.87;;;20.30;;
5795;SDS011;2924;51.458;7.046;2024-01-15T00:38:21;49.07;;;19.53;;
5795;SDS011;2924;51.458;7.046;2024-01-15T00:40:47;49.77;;;20.43;;
5795;SDS011;2924;51.458;7.046;2024-01-15T00:43:12;41.57;;;21.03;;
5795;SDS011;2924;51.458;7.046;2024-01-15T00:45:38;46.63;;;20.00;;
5795;SDS011;2924;51.458;7.046;2024-01-15T00:48:04;43.60;;;20.87;;
5795;SDS011;2924;51.458;7.046;2024-01-15T00:50:30;46.97;;;20.47;;
5795;SDS011;2924;51.458;7.046;2024-01-15T00:52:55;40.20;;;19.50;;
5795;SDS011;2924;51.458;7.046;2024-01-15T00:55:21;47.63;;;21.47;;
5795;SDS011;2924;51.458;7.046;2024-01-15T00:57:46;44.50;;;19.57;;
5795;SDS011;2924;51.458;7.046;2024-01-15T01:00:12;45.50;;;20.37;;
5795;SDS011;2924;51.458;7.046;2024-01-15T01:02:38;40.77;;;19.87;;
5795;SDS011;2924;51.458;7.046;2024-01-15T01:05:04;45.10;;;20.20;;
5795;SDS011;2924;51.458;7.046;2024-01-15T01:07:30;48.87;;;20.67;;
5795;SDS011;2924;51.458;7.046;2024-01-15T01:09:55;45.00;;;21.50;;
5795;SDS011;2924;51.458;7.046;2024-01-15T01:12:21;43.30;;;19.57;;
5795;SDS011;2924;51.458;7.046;2024-01-15T01:14:46;41.80;;;18.77;;
5795;SDS011;2924;51.458;7.046;2024-01-15T01:17:12;44.60;;;20.23;;
5795;SDS011;2924;51.458;7.046;2024-01-15T01:19:37;41.97;;;19.20;;
5795;SDS011;2924;51.458;7.046;2024-01-15T01:22:03;41.50;;;19.70;;
5795;SDS011;2924;51.458;7.046;2024-01-15T01:24:29;45.77;;;21.37;;
5795;SDS011;2924;51.458;7.046;2024-01-15T01:26:54;42.60;;;19.17;;
5795;SDS011;2924;51.458;7.046;2024-01-15T01:29:20;40.10;;;19.23;;
5795;SDS011;2924;51.458;7.046;2024-01-15T01:31:45;46.23;;;21.13;;
5795;SDS011;2924;51.458;7.046;2024-01-15T01:34:15;46.60;;;20.47;;
5795;SDS011;2924;51.458;7.046;2024-01-15T01:36:41;40.87;;;19.00;;
5795;SDS011;2924;51.458;7.046;2024-01-15T01:39:08;41.60;;;19.40;;
5795;SDS011;2924;51.458;7.046;2024-01-15T01:41:34;41.70;;;20.20;;
5795;SDS011;2924;51.458;7.046;2024-01-15T01:43:59;47.27;;;20.40;;
5795;SDS011;2924;51.458;7.046;2024-01-15T01:46:25;42.70;;;20.40;;
5795;SDS011;2924;51.458;7.046;2024-01-15T01:48:52;42.50;;;20.33;;
5795;SDS011;2924;51.458;7.046;2024-01-15T01:51:20;36.40;;;18.83;;
5795;SDS011;2924;51.458;7.046;2024-01-15T01:53:48;42.37;;;19.53;;
5795;SDS011;2924;51.458;7.046;2024-01-15T01:56:15;46.27;;;18.13;;
5795;SDS011;2924;51.458;7.046;2024-01-15T01:58:41;42.37;;;19.57;;
5795;SDS011;2924;51.458;7.046;2024-01-15T02:01:07;35.40;;;17.93;;
5795;SDS011;2924;51.458;7.046;2024-01-15T02:03:33;38.93;;;18.37;;
5795;SDS011;2924;51.458;7.046;2024-01-15T02:05:59;42.60;;;19.77;;
5795;SDS011;2924;51.458;7.046;2024-01-15T02:08:26;47.30;;;19.17;;
5795;SDS011;2924;51.458;7.046;2024-01-15T02:10:52;42.40;;;18.93;;
5795;SDS011;2924;51.458;7.046;2024-01-15T02:13:17;40.73;;;18.77;;
5795;SDS011;2924;51.458;7.046;2024-01-15T02:15:43;37.17;;;19.07;;
5795;SDS011;2924;51.458;7.046;2024-01-15T02:18:09;36.60;;;17.47;;
5795;SDS011;2924;51.458;7.046;2024-01-15T02:20:35;38.63;;;17.03;;
5795;SDS011;2924;51.458;7.046;2024-01-15T02:23:08;34.37;;;17.73;;
5795;SDS011;2924;51.458;7.046;2024-01-15T02:25:36;38.23;;;18.20;;
5795;SDS011;2924;51.458;7.046;2024-01-15T02:28:06;37.80;;;18.13;;
5795;SDS011;2924;51.458;7.046;2024-01-15T02:30:34;37.10;;;17.37;;
5795;SDS011;2924;51.458;7.046;2024-01-15T02:36:26;30.47;;;13.80;;
5795;SDS011;2924;51.458;7.046;2024-01-15T02:38:51;37.30;;;17.57;;
5795;SDS011;2924;51.458;7.046;2024-01-15T02:41:17;31.73;;;16.60;;
5795;SDS011;2924;51.458;7.046;2024-01-15T02:43:42;31.93;;;16.10;;
5795;SDS011;2924;51.458;7.046;2024-01-15T02:46:08;35.70;;;16.43;;
5795;SDS011;2924;51.458;7.046;2024-01-15T02:48:33;27.67;;;14.50;;
5795;SDS011;2924;51.458;7.046;2024-01-15T02:51:02;44.10;;;16.67;;
5795;SDS011;2924;51.458;7.046;2024-01-15T02:53:28;30.07;;;15.47;;
5795;SDS011;2924;51.458;7.046;2024-01-15T02:55:53;31.47;;;14.40;;
5795;SDS011;2924;51.458;7.046;2024-01-15T02:58:19;31.00;;;14.80;;
5795;SDS011;2924;51.458;7.046;2024-01-15T03:00:45;31.03;;;14.67;;
5795;SDS011;2924;51.458;7.046;2024-01-15T03:03:11;36.97;;;15.13;;
5795;SDS011;2924;51.458;7.046;2024-01-15T03:05:37;35.17;;;15.10;;
5795;SDS011;2924;51.458;7.046;2024-01-15T03:08:02;35.13;;;14.20;;
5795;SDS011;2924;51.458;7.046;2024-01-15T03:10:28;35.23;;;15.40;;
5795;SDS011;2924;51.458;7.046;2024-01-15T03:12:54;32.50;;;13.93;;
5795;SDS011;2924;51.458;7.046;2024-01-15T03:15:19;33.13;;;14.60;;
5795;SDS011;2924;51.458;7.046;2024-01-15T03:17:45;31.43;;;13.33;;
5795;SDS011;2924;51.458;7.046;2024-01-15T03:20:11;32.60;;;13.50;;
5795;SDS011;2924;51.458;7.046;2024-01-15T03:22:37;25.23;;;13.87;;
5795;SDS011;2924;51.458;7.046;2024-01-15T03:25:03;28.00;;;14.60;;
5795;SDS011;2924;51.458;7.046;2024-01-15T03:27:29;29.23;;;12.87;;
5795;SDS011;2924;51.458;7.046;2024-01-15T03:29:55;20.70;;;12.43;;
5795;SDS011;2924;51.458;7.046;2024-01-15T03:32:20;31.27;;;13.87;;
5795;SDS011;2924;51.458;7.046;2024-01-15T03:34:46;27.40;;;13.80;;
5795;SDS011;2924;51.458;7.046;2024-01-15T03:37:12;31.40;;;13.93;;
5795;SDS011;2924;51.458;7.046;2024-01-15T03:39:38;25.23;;;12.33;;
5795;SDS011;2924;51.458;7.046;2024-01-15T03:42:04;21.50;;;11.87;;
5795;SDS011;2924;51.458;7.046;2024-01-15T03:44:29;43.27;;;13.57;;
5795;SDS011;2924;51.458;7.046;2024-01-15T03:46:55;28.83;;;13.07;;
5795;SDS011;2924;51.458;7.046;2024-01-15T03:49:20;19.20;;;10.53;;
5795;SDS011;2924;51.458;7.046;2024-01-15T03:51:46;23.13;;;12.30;;
5795;SDS011;2924;51.458;7.046;2024-01-15T03:54:12;24.03;;;11.20;;
5795;SDS011;2924;51.458;7.046;2024-01-15T03:56:37;23.80;;;10.47;;
5795;SDS011;2924;51.458;7.046;2024-01-15T03:59:03;20.03;;;11.60;;
5795;SDS011;2924;51.458;7.046;2024-01-15T04:01:28;25.10;;;13.83;;
5795;SDS011;2924;51.458;7.046;2024-01-15T04:03:54;24.10;;;14.40;;
5795;SDS011;2924;51.458;7.046;2024-01-15T04:06:20;28.53;;;12.20;;
5795;SDS011;2924;51.458;7.046;2024-01-15T04:08:46;20.10;;;11.93;;
5795;SDS011;2924;51.458;7.046;2024-01-15T04:11:11;21.10;;;12.50;;
5795;SDS011;2924;51.458;7.046;2024-01-15T04:13:37;30.47;;;12.93;;
5795;SDS011;2924;51.458;7.046;2024-01-15T04:16:02;25.93;;;14.50;;
5795;SDS011;2924;51.458;7.046;2024-01-15T04:18:28;31.20;;;15.73;;
5795;SDS011;2924;51.458;7.046;2024-01-15T04:20:54;41.40;;;18.00;;
5795;SDS011;2924;51.458;7.046;2024-01-15T04:23:19;28.70;;;16.50;;
5795;SDS011;2924;51.458;7.046;2024-01-15T04:25:45;30.73;;;16.13;;
5795;SDS011;2924;51.458;7.046;2024-01-15T04:28:11;39.20;;;18.70;;
5795;SDS011;2924;51.458;7.046;2024-01-15T04:30:37;29.83;;;16.40;;
5795;SDS011;2924;51.458;7.046;2024-01-15T04:33:02;34.80;;;15.27;;
5795;SDS011;2924;51.458;7.046;2024-01-15T04:35:28;25.27;;;16.10;;
5795;SDS011;2924;51.458;7.046;2024-01-15T04:37:55;28.37;;;15.10;;
5795;SDS011;2924;51.458;7.046;2024-01-15T04:40:20;31.17;;;17.33;;
5795;SDS011;2924;51.458;7.046;2024-01-15T04:42:46;24.67;;;14.20;;
5795;SDS011;2924;51.458;7.046;2024-01-15T04:45:11;23.07;;;14.10;;
5795;SDS011;2924;51.458;7.046;2024-01-15T04:47:37;26.93;;;13.90;;
5795;SDS011;2924;51.458;7.046;2024-01-15T04:50:03;33.77;;;14.40;;
5795;SDS011;2924;51.458;7.046;2024-01-15T04:52:29;29.23;;;14.87;;
5795;SDS011;2924;51.458;7.046;2024-01-15T04:54:55;25.23;;;14.93;;
5795;SDS011;2924;51.458;7.046;2024-01-15T04:57:20;30.93;;;15.30;;
5795;SDS011;2924;51.458;7.046;2024-01-15T04:59:46;21.10;;;14.73;;
5795;SDS011;2924;51.458;7.046;2024-01-15T05:02:11;41.00;;;15.23;;
5795;SDS011;2924;51.458;7.046;2024-01-15T05:04:37;24.97;;;14.57;;
5795;SDS011;2924;51.458;7.046;2024-01-15T05:07:02;26.63;;;14.87;;
5795;SDS011;2924;51.458;7.046;2024-01-15T05:09:28;30.47;;;15.40;;
5795;SDS011;2924;51.458;7.046;2024-01-15T05:11:54;18.90;;;12.73;;
5795;SDS011;2924;51.458;7.046;2024-01-15T05:14:19;35.23;;;15.00;;
5795;SDS011;2924;51.458;7.046;2024-01-15T05:16:48;23.70;;;13.93;;
5795;SDS011;2924;51.458;7.046;2024-01-15T05:19:14;19.47;;;12.60;;
5795;SDS011;2924;51.458;7.046;2024-01-15T05:21:40;22.87;;;12.53;;
5795;SDS011;2924;51.458;7.046;2024-01-15T05:24:05;19.20;;;11.70;;
5795;SDS011;2924;51.458;7.046;2024-01-15T05:26:32;21.50;;;12.43;;
5795;SDS011;2924;51.458;7.046;2024-01-15T05:28:58;26.30;;;12.63;;
5795;SDS011;2924;51.458;7.046;2024-01-15T05:31:23;24.77;;;13.33;;
5795;SDS011;2924;51.458;7.046;2024-01-15T05:33:49;25.00;;;14.10;;
5795;SDS011;2924;51.458;7.046;2024-01-15T05:36:14;26.37;;;15.27;;
5795;SDS011;2924;51.458;7.046;2024-01-15T05:38:40;29.23;;;15.47;;
5795;SDS011;2924;51.458;7.046;2024-01-15T05:41:05;22.40;;;13.03;;
5795;SDS011;2924;51.458;7.046;2024-01-15T05:43:31;24.90;;;14.40;;
5795;SDS011;2924;51.458;7.046;2024-01-15T05:45:56;25.67;;;13.10;;
5795;SDS011;2924;51.458;7.046;2024-01-15T05:48:23;23.20;;;14.10;;
5795;SDS011;2924;51.458;7.046;2024-01-15T05:50:48;23.90;;;14.40;;
5795;SDS011;2924;51.458;7.046;2024-01-15T05:53:14;26.47;;;14.37;;
5795;SDS011;2924;51.458;7.046;2024-01-15T05:55:40;29.07;;;14.90;;
5795;SDS011;2924;51.458;7.046;2024-01-15T05:58:05;20.43;;;13.33;;
5795;SDS011;2924;51.458;7.046;2024-01-15T06:00:31;32.70;;;15.87;;
5795;SDS011;2924;51.458;7.046;2024-01-15T06:02:58;29.83;;;14.87;;
5795;SDS011;2924;51.458;7.046;2024-01-15T06:05:24;19.37;;;13.43;;
5795;SDS011;2924;51.458;7.046;2024-01-15T06:07:50;23.50;;;14.03;;
5795;SDS011;2924;51.458;7.046;2024-01-15T06:10:15;22.93;;;13.80;;
5795;SDS011;2924;51.458;7.046;2024-01-15T06:12:42;20.60;;;13.23;;
5795;SDS011;2924;51.458;7.046;2024-01-15T06:15:08;26.20;;;12.67;;
5795;SDS011;2924;51.458;7.046;2024-01-15T06:17:34;24.50;;;13.40;;
5795;SDS011;2924;51.458;7.046;2024-01-15T06:19:59;18.90;;;11.50;;
5795;SDS011;2924;51.458;7.046;2024-01-15T06:22:25;25.30;;;12.30;;
5795;SDS011;2924;51.458;7.046;2024-01-15T06:24:50;25.10;;;11.80;;
5795;SDS011;2924;51.458;7.046;2024-01-15T06:27:16;26.00;;;12.00;;
5795;SDS011;2924;51.458;7.046;2024-01-15T06:29:44;21.53;;;12.27;;
5795;SDS011;2924;51.458;7.046;2024-01-15T06:32:12;26.83;;;11.50;;
5795;SDS011;2924;51.458;7.046;2024-01-15T06:34:37;15.07;;;9.77;;
5795;SDS011;2924;51.458;7.046;2024-01-15T06:37:03;17.00;;;11.23;;
5795;SDS011;2924;51.458;7.046;2024-01-15T06:39:28;16.77;;;11.10;;
5795;SDS011;2924;51.458;7.046;2024-01-15T06:41:54;24.00;;;11.70;;
5795;SDS011;2924;51.458;7.046;2024-01-15T06:44:20;20.63;;;9.63;;
5795;SDS011;2924;51.458;7.046;2024-01-15T06:46:46;13.43;;;8.90;;
5795;SDS011;2924;51.458;7.046;2024-01-15T06:49:12;20.60;;;9.87;;
5795;SDS011;2924;51.458;7.046;2024-01-15T06:51:38;19.83;;;7.70;;
5795;SDS011;2924;51.458;7.046;2024-01-15T06:54:04;19.23;;;8.83;;
5795;SDS011;2924;51.458;7.046;2024-01-15T06:56:30;15.47;;;7.97;;
5795;SDS011;2924;51.458;7.046;2024-01-15T06:58:56;16.80;;;7.03;;
5795;SDS011;2924;51.458;7.046;2024-01-15T07:01:22;16.63;;;5.97;;
5795;SDS011;2924;51.458;7.046;2024-01-15T07:03:48;9.43;;;6.63;;
5795;SDS011;2924;51.458;7.046;2024-01-15T07:06:13;12.73;;;6.80;;
5795;SDS011;2924;51.458;7.046;2024-01-15T07:08:39;11.10;;;6.70;;
5795;SDS011;2924;51.458;7.046;2024-01-15T07:11:06;9.80;;;5.40;;
5795;SDS011;2924;51.458;7.046;2024-01-15T07:13:32;17.53;;;5.80;;
5795;SDS011;2924;51.458;7.046;2024-01-15T07:15:58;19.00;;;6.40;;
5795;SDS011;2924;51.458;7.046;2024-01-15T07:18:24;11.73;;;5.03;;
5795;SDS011;2924;51.458;7.046;2024-01-15T07:20:50;10.00;;;4.70;;
5795;SDS011;2924;51.458;7.046;2024-01-15T07:23:15;9.60;;;5.00;;
5795;SDS011;2924;51.458;7.046;2024-01-15T07:25:42;4.40;;;3.63;;
5795;SDS011;2924;51.458;7.046;2024-01-15T07:28:07;3.60;;;3.40;;
5795;SDS011;2924;51.458;7.046;2024-01-15T07:30:33;13.53;;;4.60;;
5795;SDS011;2924;51.458;7.046;2024-01-15T07:32:58;11.10;;;3.80;;
5795;SDS011;2924;51.458;7.046;2024-01-15T07:35:24;9.03;;;4.50;;
5795;SDS011;2924;51.458;7.046;2024-01-15T07:37:49;7.20;;;3.93;;
5795;SDS011;2924;51.458;7.046;2024-01-15T07:40:15;6.30;;;4.10;;
5795;SDS011;2924;51.458;7.046;2024-01-15T07:42:41;7.10;;;4.07;;
5795;SDS011;2924;51.458;7.046;2024-01-15T07:45:07;6.10;;;3.90;;
5795;SDS011;2924;51.458;7.046;2024-01-15T07:47:33;3.80;;;3.50;;
5795;SDS011;2924;51.458;7.046;2024-01-15T07:49:59;4.93;;;3.77;;
5795;SDS011;2924;51.458;7.046;2024-01-15T07:52:25;4.77;;;3.20;;
5795;SDS011;2924;51.458;7.046;2024-01-15T07:54:50;6.53;;;4.70;;
5795;SDS011;2924;51.458;7.046;2024-01-15T07:57:16;5.10;;;4.53;;
5795;SDS011;2924;51.458;7.046;2024-01-15T07:59:41;11.03;;;7.63;;
5795;SDS011;2924;51.458;7.046;2024-01-15T08:02:07;11.50;;;7.50;;
5795;SDS011;2924;51.458;7.046;2024-01-15T08:04:32;13.70;;;7.23;;
5795;SDS011;2924;51.458;7.046;2024-01-15T08:06:58;11.97;;;8.20;;
5795;SDS011;2924;51.458;7.046;2024-01-15T08:09:24;11.57;;;8.70;;
5795;SDS011;2924;51.458;7.046;2024-01-15T08:11:49;12.27;;;8.77;;
5795;SDS011;2924;51.458;7.046;2024-01-15T08:14:15;15.50;;;10.10;;
5795;SDS011;2924;51.458;7.046;2024-01-15T08:16:41;14.17;;;10.63;;
5795;SDS011;2924;51.458;7.046;2024-01-15T08:19:06;15.13;;;9.77;;
5795;SDS011;2924;51.458;7.046;2024-01-15T08:21:32;19.53;;;11.97;;
5795;SDS011;2924;51.458;7.046;2024-01-15T08:24:01;17.07;;;9.90;;
5795;SDS011;2924;51.458;7.046;2024-01-15T08:26:27;11.90;;;9.30;;
5795;SDS011;2924;51.458;7.046;2024-01-15T08:28:53;13.97;;;9.90;;
5795;SDS011;2924;51.458;7.046;2024-01-15T08:31:19;13.17;;;10.60;;
5795;SDS011;2924;51.458;7.046;2024-01-15T08:33:45;11.10;;;9.57;;
5795;SDS011;2924;51.458;7.046;2024-01-15T08:36:11;12.90;;;9.40;;
5795;SDS011;2924;51.458;7.046;2024-01-15T08:38:36;13.40;;;10.53;;
5795;SDS011;2924;51.458;7.046;2024-01-15T08:41:03;16.03;;;10.83;;
5795;SDS011;2924;51.458;7.046;2024-01-15T08:43:29;11.60;;;9.00;;
5795;SDS011;2924;51.458;7.046;2024-01-15T08:45:56;14.90;;;10.57;;
5795;SDS011;2924;51.458;7.046;2024-01-15T08:48:22;11.23;;;9.90;;
5795;SDS011;2924;51.458;7.046;2024-01-15T08:50:48;13.33;;;9.87;;
5795;SDS011;2924;51.458;7.046;2024-01-15T08:53:14;12.20;;;9.60;;
5795;SDS011;2924;51.458;7.046;2024-01-15T08:55:39;11.53;;;9.80;;
5795;SDS011;2924;51.458;7.046;2024-01-15T08:58:07;14.33;;;10.37;;
5795;SDS011;2924;51.458;7.046;2024-01-15T09:00:33;14.10;;;11.33;;
5795;SDS011;2924;51.458;7.046;2024-01-15T09:02:59;16.60;;;11.80;;
5795;SDS011;2924;51.458;7.046;2024-01-15T09:05:24;16.00;;;11.23;;
5795;SDS011;2924;51.458;7.046;2024-01-15T09:07:50;13.70;;;9.50;;
5795;SDS011;2924;51.458;7.046;2024-01-15T09:10:17;17.37;;;10.63;;
5795;SDS011;2924;51.458;7.046;2024-01-15T09:12:43;12.40;;;10.63;;
5795;SDS011;2924;51.458;7.046;2024-01-15T09:15:08;15.47;;;10.33;;
5795;SDS011;2924;51.458;7.046;2024-01-15T09:17:34;11.83;;;9.53;;
5795;SDS011;2924;51.458;7.046;2024-01-15T09:20:00;12.20;;;10.00;;
5795;SDS011;2924;51.458;7.046;2024-01-15T09:22:26;20.60;;;10.23;;
5795;SDS011;2924;51.458;7.046;2024-01-15T09:24:51;13.00;;;10.37;;
5795;SDS011;2924;51.458;7.046;2024-01-15T09:27:17;15.43;;;9.57;;
5795;SDS011;2924;51.458;7.046;2024-01-15T09:29:43;14.03;;;10.03;;
5795;SDS011;2924;51.458;7.046;2024-01-15T09:32:11;13.17;;;10.13;;
5795;SDS011;2924;51.458;7.046;2024-01-15T09:34:37;12.53;;;9.63;;
5795;SDS011;2924;51.458;7.046;2024-01-15T09:37:03;13.53;;;9.40;;
5795;SDS011;2924;51.458;7.046;2024-01-15T09:39:29;14.53;;;8.97;;
5795;SDS011;2924;51.458;7.046;2024-01-15T09:41:58;9.37;;;8.03;;
5795;SDS011;2924;51.458;7.046;2024-01-15T09:44:24;10.10;;;7.27;;
5795;SDS011;2924;51.458;7.046;2024-01-15T09:46:52;8.20;;;6.97;;
5795;SDS011;2924;51.458;7.046;2024-01-15T09:49:18;9.47;;;7.80;;
5795;SDS011;2924;51.458;7.046;2024-01-15T09:51:45;11.77;;;9.30;;
5795;SDS011;2924;51.458;7.046;2024-01-15T09:54:11;9.53;;;7.70;;
5795;SDS011;2924;51.458;7.046;2024-01-15T09:56:38;9.50;;;8.17;;
5795;SDS011;2924;51.458;7.046;2024-01-15T09:59:04;8.83;;;7.93;;
5795;SDS011;2924;51.458;7.046;2024-01-15T10:01:31;11.10;;;8.63;;
5795;SDS011;2924;51.458;7.046;2024-01-15T10:03:57;10.97;;;9.37;;
5795;SDS011;2924;51.458;7.046;2024-01-15T10:06:27;11.20;;;8.60;;
5795;SDS011;2924;51.458;7.046;2024-01-15T10:08:53;13.07;;;8.07;;
5795;SDS011;2924;51.458;7.046;2024-01-15T10:11:20;12.13;;;8.13;;
5795;SDS011;2924;51.458;7.046;2024-01-15T10:13:46;14.63;;;9.63;;
5795;SDS011;2924;51.458;7.046;2024-01-15T10:16:16;10.13;;;8.37;;
5795;SDS011;2924;51.458;7.046;2024-01-15T10:18:41;11.33;;;8.70;;
5795;SDS011;2924;51.458;7.046;2024-01-15T10:21:07;12.87;;;7.30;;
5795;SDS011;2924;51.458;7.046;2024-01-15T10:23:33;8.70;;;7.20;;
5795;SDS011;2924;51.458;7.046;2024-01-15T10:25:59;9.93;;;7.23;;
5795;SDS011;2924;51.458;7.046;2024-01-15T10:28:29;11.00;;;8.03;;
5795;SDS011;2924;51.458;7.046;2024-01-15T10:30:57;9.50;;;7.13;;
5795;SDS011;2924;51.458;7.046;2024-01-15T10:33:26;8.60;;;6.30;;
5795;SDS011;2924;51.458;7.046;2024-01-15T10:35:56;6.70;;;5.83;;
5795;SDS011;2924;51.458;7.046;2024-01-15T10:38:23;6.80;;;5.57;;
5795;SDS011;2924;51.458;7.046;2024-01-15T10:40:52;8.10;;;5.47;;
5795;SDS011;2924;51.458;7.046;2024-01-15T10:43:19;7.53;;;5.77;;
5795;SDS011;2924;51.458;7.046;2024-01-15T10:45:45;6.80;;;5.53;;
5795;SDS011;2924;51.458;7.046;2024-01-15T10:48:12;8.97;;;5.47;;
5795;SDS011;2924;51.458;7.046;2024-01-15T10:50:38;10.70;;;6.67;;
5795;SDS011;2924;51.458;7.046;2024-01-15T10:53:04;9.00;;;6.23;;
5795;SDS011;2924;51.458;7.046;2024-01-15T10:55:30;10.17;;;6.40;;
5795;SDS011;2924;51.458;7.046;2024-01-15T10:57:58;6.53;;;5.80;;
5795;SDS011;2924;51.458;7.046;2024-01-15T11:00:24;10.53;;;6.47;;
5795;SDS011;2924;51.458;7.046;2024-01-15T11:02:50;11.47;;;7.20;;
5795;SDS011;2924;51.458;7.046;2024-01-15T11:05:16;8.87;;;6.80;;
5795;SDS011;2924;51.458;7.046;2024-01-15T11:07:47;7.20;;;6.33;;
5795;SDS011;2924;51.458;7.046;2024-01-15T11:18:34;7.73;;;6.73;;
5795;SDS011;2924;51.458;7.046;2024-01-15T11:21:19;8.70;;;6.60;;
5795;SDS011;2924;51.458;7.046;2024-01-15T11:23:47;15.20;;;6.90;;
5795;SDS011;2924;51.458;7.046;2024-01-15T11:29:06;8.40;;;6.00;;
5795;SDS011;2924;51.458;7.046;2024-01-15T11:37:18;5.33;;;4.83;;
5795;SDS011;2924;51.458;7.046;2024-01-15T11:39:44;5.80;;;5.30;;
5795;SDS011;2924;51.458;7.046;2024-01-15T11:42:11;5.30;;;4.80;;
5795;SDS011;2924;51.458;7.046;2024-01-15T11:44:38;16.23;;;5.10;;
5795;SDS011;2924;51.458;7.046;2024-01-15T11:47:05;8.60;;;4.90;;
5795;SDS011;2924;51.458;7.046;2024-01-15T11:52:34;5.83;;;5.30;;
5795;SDS011;2924;51.458;7.046;2024-01-15T11:55:03;9.03;;;5.60;;
5795;SDS011;2924;51.458;7.046;2024-01-15T11:57:51;10.03;;;4.90;;
5795;SDS011;2924;51.458;7.046;2024-01-15T12:00:19;9.00;;;7.43;;
5795;SDS011;2924;51.458;7.046;2024-01-15T12:02:46;5.30;;;4.80;;
5795;SDS011;2924;51.458;7.046;2024-01-15T12:05:13;9.70;;;5.43;;
5795;SDS011;2924;51.458;7.046;2024-01-15T12:07:40;7.43;;;4.80;;
5795;SDS011;2924;51.458;7.046;2024-01-15T12:10:14;11.33;;;4.70;;
5795;SDS011;2924;51.458;7.046;2024-01-15T12:15:05;10.10;;;5.23;;
5795;SDS011;2924;51.458;7.046;2024-01-15T12:17:31;5.87;;;5.37;;
5795;SDS011;2924;51.458;7.046;2024-01-15T12:19:57;7.30;;;3.97;;
5795;SDS011;2924;51.458;7.046;2024-01-15T12:22:22;5.97;;;4.77;;
5795;SDS011;2924;51.458;7.046;2024-01-15T12:24:48;10.67;;;4.83;;
5795;SDS011;2924;51.458;7.046;2024-01-15T12:27:14;9.50;;;5.17;;
5795;SDS011;2924;51.458;7.046;2024-01-15T12:29:40;3.87;;;3.43;;
5795;SDS011;2924;51.458;7.046;2024-01-15T12:32:05;9.27;;;4.00;;
5795;SDS011;2924;51.458;7.046;2024-01-15T12:34:33;7.60;;;3.87;;
5795;SDS011;2924;51.458;7.046;2024-01-15T12:36:58;5.97;;;3.23;;
5795;SDS011;2924;51.458;7.046;2024-01-15T12:39:24;5.50;;;2.87;;
5795;SDS011;2924;51.458;7.046;2024-01-15T12:41:50;10.00;;;3.00;;
5795;SDS011;2924;51.458;7.046;2024-01-15T12:44:16;5.80;;;3.30;;
5795;SDS011;2924;51.458;7.046;2024-01-15T12:46:42;4.43;;;2.70;;
5795;SDS011;2924;51.458;7.046;2024-01-15T12:49:08;3.70;;;3.20;;
5795;SDS011;2924;51.458;7.046;2024-01-15T12:51:36;4.60;;;2.57;;
5795;SDS011;2924;51.458;7.046;2024-01-15T12:54:02;8.70;;;3.10;;
5795;SDS011;2924;51.458;7.046;2024-01-15T12:56:27;7.87;;;2.57;;
5795;SDS011;2924;51.458;7.046;2024-01-15T12:58:53;3.97;;;2.50;;
5795;SDS011;2924;51.458;7.046;2024-01-15T13:01:18;3.80;;;2.60;;
5795;SDS011;2924;51.458;7.046;2024-01-15T13:03:44;3.43;;;2.47;;
5795;SDS011;2924;51.458;7.046;2024-01-15T13:06:10;4.13;;;2.47;;
5795;SDS011;2924;51.458;7.046;2024-01-15T13:08:35;5.20;;;3.00;;
5795;SDS011;2924;51.458;7.046;2024-01-15T13:11:01;4.53;;;3.03;;
5795;SDS011;2924;51.458;7.046;2024-01-15T13:13:26;10.43;;;3.27;;
5795;SDS011;2924;51.458;7.046;2024-01-15T13:15:52;5.40;;;2.80;;
5795;SDS011;2924;51.458;7.046;2024-01-15T13:18:18;8.57;;;3.30;;
5795;SDS011;2924;51.458;7.046;2024-01-15T13:20:43;4.20;;;3.80;;
5795;SDS011;2924;51.458;7.046;2024-01-15T13:23:10;6.67;;;4.20;;
5795;SDS011;2924;51.458;7.046;2024-01-15T13:25:36;4.73;;;3.43;;
5795;SDS011;2924;51.458;7.046;2024-01-15T13:28:03;4.40;;;4.00;;
5795;SDS011;2924;51.458;7.046;2024-01-15T13:30:30;4.60;;;4.30;;
5795;SDS011;2924;51.458;7.046;2024-01-15T13:32:56;5.40;;;4.47;;
5795;SDS011;2924;51.458;7.046;2024-01-15T13:35:23;5.60;;;4.03;;
5795;SDS011;2924;51.458;7.046;2024-01-15T13:37:48;8.80;;;3.70;;
5795;SDS011;2924;51.458;7.046;2024-01-15T13:40:14;7.27;;;2.93;;
5795;SDS011;2924;51.458;7.046;2024-01-15T13:42:45;3.93;;;3.57;;
5795;SDS011;2924;51.458;7.046;2024-01-15T13:45:11;9.60;;;3.80;;
5795;SDS011;2924;51.458;7.046;2024-01-15T13:47:39;14.30;;;4.00;;
5795;SDS011;2924;51.458;7.046;2024-01-15T13:50:05;9.63;;;4.37;;
5795;SDS011;2924;51.458;7.046;2024-01-15T13:52:32;5.57;;;5.07;;
5795;SDS011;2924;51.458;7.046;2024-01-15T13:54:58;6.43;;;4.90;;
5795;SDS011;2924;51.458;7.046;2024-01-15T13:57:23;4.70;;;4.30;;
5795;SDS011;2924;51.458;7.046;2024-01-15T13:59:49;6.73;;;4.00;;
5795;SDS011;2924;51.458;7.046;2024-01-15T14:02:17;6.17;;;4.40;;
5795;SDS011;2924;51.458;7.046;2024-01-15T14:04:43;5.10;;;4.70;;
5795;SDS011;2924;51.458;7.046;2024-01-15T14:07:08;5.47;;;4.30;;
5795;SDS011;2924;51.458;7.046;2024-01-15T14:09:34;4.40;;;3.70;;
5795;SDS011;2924;51.458;7.046;2024-01-15T14:11:59;4.43;;;4.03;;
5795;SDS011;2924;51.458;7.046;2024-01-15T14:14:25;8.83;;;4.50;;
5795;SDS011;2924;51.458;7.046;2024-01-15T14:16:51;4.03;;;3.73;;
5795;SDS011;2924;51.458;7.046;2024-01-15T14:19:16;7.50;;;4.20;;
5795;SDS011;2924;51.458;7.046;2024-01-15T14:21:43;5.20;;;4.07;;
5795;SDS011;2924;51.458;7.046;2024-01-15T14:24:08;5.30;;;4.77;;
5795;SDS011;2924;51.458;7.046;2024-01-15T14:26:34;8.20;;;4.23;;
5795;SDS011;2924;51.458;7.046;2024-01-15T14:28:59;5.10;;;3.60;;
5795;SDS011;2924;51.458;7.046;2024-01-15T14:31:25;7.97;;;4.67;;
5795;SDS011;2924;51.458;7.046;2024-01-15T14:33:54;5.63;;;3.90;;
5795;SDS011;2924;51.458;7.046;2024-01-15T14:36:23;4.03;;;3.70;;
5795;SDS011;2924;51.458;7.046;2024-01-15T14:38:49;4.80;;;4.17;;
5795;SDS011;2924;51.458;7.046;2024-01-15T14:41:15;7.13;;;4.20;;
5795;SDS011;2924;51.458;7.046;2024-01-15T14:43:42;6.27;;;4.73;;
5795;SDS011;2924;51.458;7.046;2024-01-15T14:46:07;5.97;;;4.50;;
5795;SDS011;2924;51.458;7.046;2024-01-15T14:48:33;5.10;;;4.57;;
5795;SDS011;2924;51.458;7.046;2024-01-15T14:50:59;5.33;;;4.17;;
5795;SDS011;2924;51.458;7.046;2024-01-15T14:53:24;3.90;;;3.63;;
5795;SDS011;2924;51.458;7.046;2024-01-15T14:55:50;5.20;;;4.20;;
5795;SDS011;2924;51.458;7.046;2024-01-15T14:58:15;6.30;;;3.10;;
5795;SDS011;2924;51.458;7.046;2024-01-15T15:00:41;4.93;;;3.13;;
5795;SDS011;2924;51.458;7.046;2024-01-15T15:03:07;11.80;;;3.57;;
5795;SDS011;2924;51.458;7.046;2024-01-15T15:05:32;6.00;;;3.20;;
5795;SDS011;2924;51.458;7.046;2024-01-15T15:07:58;5.87;;;3.43;;
5795;SDS011;2924;51.458;7.046;2024-01-15T15:10:23;5.70;;;3.10;;
5795;SDS011;2924;51.458;7.046;2024-01-15T15:12:49;8.30;;;3.83;;
5795;SDS011;2924;51.458;7.046;2024-01-15T15:15:15;5.83;;;3.77;;
5795;SDS011;2924;51.458;7.046;2024-01-15T15:17:41;3.63;;;2.67;;